sensor_id;sensor_type;location;lat;lon;timestamp;P1;durP1;ratioP1;P2;durP2;ratioP2
24677;SDS011;12800;53.094;8.778;2023-11-22T00:01:49;7.67;;;5.10;;
24677;SDS011;12800;53.094;8.778;2023-11-22T00:04:18;9.47;;;5.37;;
24677;SDS011;12800;53.094;8.778;2023-11-22T00:06:45;8.23;;;5.07;;
24677;SDS011;12800;53.094;8.778;2023-11-22T00:09:11;8.17;;;5.13;;
24677;SDS011;12800;53.094;8.778;2023-11-22T00:11:36;7.80;;;4.73;;
24677;SDS011;12800;53.094;8.778;2023-11-22T00:14:02;9.80;;;5.30;;
24677;SDS011;12800;53.094;8.778;2023-11-22T00:16:28;10.70;;;5.23;;
24677;SDS011;12800;53.094;8.778;2023-11-22T00:18:55;6.07;;;4.87;;
24677;SDS011;12800;53.094;8.778;2023-11-22T00:21:21;7.20;;;4.80;;
24677;SDS011;12800;53.094;8.778;2023-11-22T00:23:46;7.33;;;5.30;;
24677;SDS011;12800;53.094;8.778;2023-11-22T00:26:12;9.73;;;4.97;;
24677;SDS011;12800;53.094;8.778;2023-11-22T00:28:38;7.83;;;5.30;;
24677;SDS011;12800;53.094;8.778;2023-11-22T00:31:03;7.50;;;5.73;;
24677;SDS011;12800;53.094;8.778;2023-11-22T00:40:32;7.63;;;5.23;;
24677;SDS011;12800;53.094;8.778;2023-11-22T00:46:57;7.40;;;5.60;;
24677;SDS011;12800;53.094;8.778;2023-11-22T00:49:45;7.20;;;5.30;;
24677;SDS011;12800;53.094;8.778;2023-11-22T00:52:53;8.03;;;4.90;;
24677;SDS011;12800;53.094;8.778;2023-11-22T00:55:19;7.60;;;5.23;;
24677;SDS011;12800;53.094;8.778;2023-11-22T00:57:44;8.53;;;5.67;;
24677;SDS011;12800;53.094;8.778;2023-11-22T01:00:10;6.40;;;5.20;;
24677;SDS011;12800;53.094;8.778;2023-11-22T01:02:40;7.17;;;5.60;;
24677;SDS011;12800;53.094;8.778;2023-11-22T01:05:56;6.77;;;4.50;;
24677;SDS011;12800;53.094;8.778;2023-11-22T01:08:23;8.67;;;5.70;;
24677;SDS011;12800;53.094;8.778;2023-11-22T01:10:49;11.23;;;5.63;;
24677;SDS011;12800;53.094;8.778;2023-11-22T01:13:15;8.03;;;5.60;;
24677;SDS011;12800;53.094;8.778;2023-11-22T01:15:41;7.57;;;5.50;;
24677;SDS011;12800;53.094;8.778;2023-11-22T01:18:07;10.07;;;5.87;;
24677;SDS011;12800;53.094;8.778;2023-11-22T01:20:32;7.07;;;5.63;;
24677;SDS011;12800;53.094;8.778;2023-11-22T01:22:58;7.07;;;5.37;;
24677;SDS011;12800;53.094;8.778;2023-11-22T01:25:24;10.20;;;5.80;;
24677;SDS011;12800;53.094;8.778;2023-11-22T01:27:49;7.60;;;5.30;;
24677;SDS011;12800;53.094;8.778;2023-11-22T01:30:15;7.83;;;5.30;;
24677;SDS011;12800;53.094;8.778;2023-11-22T01:32:43;8.17;;;5.40;;
24677;SDS011;12800;53.094;8.778;2023-11-22T01:35:10;11.13;;;5.47;;
24677;SDS011;12800;53.094;8.778;2023-11-22T01:37:35;7.27;;;5.73;;
24677;SDS011;12800;53.094;8.778;2023-11-22T01:40:02;8.67;;;5.50;;
24677;SDS011;12800;53.094;8.778;2023-11-22T01:42:28;8.60;;;5.93;;
24677;SDS011;12800;53.094;8.778;2023-11-22T01:44:54;8.20;;;6.20;;
24677;SDS011;12800;53.094;8.778;2023-11-22T01:47:20;7.30;;;5.40;;
24677;SDS011;12800;53.094;8.778;2023-11-22T01:49:47;10.93;;;6.47;;
24677;SDS011;12800;53.094;8.778;2023-11-22T01:52:13;9.83;;;5.23;;
24677;SDS011;12800;53.094;8.778;2023-11-22T01:54:39;8.57;;;6.07;;
24677;SDS011;12800;53.094;8.778;2023-11-22T01:57:06;8.83;;;5.67;;
24677;SDS011;12800;53.094;8.778;2023-11-22T01:59:33;11.00;;;6.17;;
24677;SDS011;12800;53.094;8.778;2023-11-22T02:01:59;8.67;;;6.20;;
24677;SDS011;12800;53.094;8.778;2023-11-22T02:04:25;10.27;;;5.97;;
24677;SDS011;12800;53.094;8.778;2023-11-22T02:06:51;8.73;;;5.50;;
24677;SDS011;12800;53.094;8.778;2023-11-22T02:09:17;9.97;;;5.90;;
24677;SDS011;12800;53.094;8.778;2023-11-22T02:11:43;9.53;;;6.40;;
24677;SDS011;12800;53.094;8.778;2023-11-22T02:14:14;9.50;;;6.40;;
24677;SDS011;12800;53.094;8.778;2023-11-22T02:16:40;8.27;;;5.73;;
24677;SDS011;12800;53.094;8.778;2023-11-22T02:19:07;10.27;;;6.47;;
24677;SDS011;12800;53.094;8.778;2023-11-22T02:21:36;10.20;;;6.03;;
24677;SDS011;12800;53.094;8.778;2023-11-22T02:24:02;6.93;;;5.43;;
24677;SDS011;12800;53.094;8.778;2023-11-22T02:26:28;10.27;;;5.47;;
24677;SDS011;12800;53.094;8.778;2023-11-22T02:28:54;7.10;;;5.30;;
24677;SDS011;12800;53.094;8.778;2023-11-22T02:31:20;9.73;;;5.50;;
24677;SDS011;12800;53.094;8.778;2023-11-22T02:33:46;9.70;;;5.70;;
24677;SDS011;12800;53.094;8.778;2023-11-22T02:36:12;9.57;;;6.00;;
24677;SDS011;12800;53.094;8.778;2023-11-22T02:38:38;8.73;;;5.63;;
24677;SDS011;12800;53.094;8.778;2023-11-22T02:41:03;10.27;;;6.37;;
24677;SDS011;12800;53.094;8.778;2023-11-22T02:43:29;8.27;;;6.33;;
24677;SDS011;12800;53.094;8.778;2023-11-22T02:45:55;9.00;;;5.37;;
24677;SDS011;12800;53.094;8.778;2023-11-22T02:48:21;9.97;;;6.57;;
24677;SDS011;12800;53.094;8.778;2023-11-22T02:50:47;8.40;;;6.27;;
24677;SDS011;12800;53.094;8.778;2023-11-22T02:53:14;9.37;;;6.90;;
24677;SDS011;12800;53.094;8.778;2023-11-22T02:55:39;9.00;;;5.80;;
24677;SDS011;12800;53.094;8.778;2023-11-22T02:58:06;8.97;;;6.27;;
24677;SDS011;12800;53.094;8.778;2023-11-22T03:00:32;10.83;;;5.80;;
24677;SDS011;12800;53.094;8.778;2023-11-22T03:02:59;7.70;;;5.80;;
24677;SDS011;12800;53.094;8.778;2023-11-22T03:05:25;7.80;;;5.73;;
24677;SDS011;12800;53.094;8.778;2023-11-22T03:07:51;10.03;;;5.83;;
24677;SDS011;12800;53.094;8.778;2023-11-22T03:10:17;8.73;;;5.90;;
24677;SDS011;12800;53.094;8.778;2023-11-22T03:12:43;10.33;;;6.10;;
24677;SDS011;12800;53.094;8.778;2023-11-22T03:15:09;8.10;;;5.93;;
24677;SDS011;12800;53.094;8.778;2023-11-22T03:17:35;7.90;;;5.70;;
24677;SDS011;12800;53.094;8.778;2023-11-22T03:20:04;9.80;;;5.57;;
24677;SDS011;12800;53.094;8.778;2023-11-22T03:22:34;8.33;;;6.23;;
24677;SDS011;12800;53.094;8.778;2023-11-22T03:25:03;10.27;;;6.00;;
24677;SDS011;12800;53.094;8.778;2023-11-22T03:27:36;9.87;;;6.40;;
24677;SDS011;12800;53.094;8.778;2023-11-22T03:30:04;9.27;;;6.07;;
24677;SDS011;12800;53.094;8.778;2023-11-22T03:32:37;7.40;;;5.50;;
24677;SDS011;12800;53.094;8.778;2023-11-22T03:35:05;11.17;;;6.03;;
24677;SDS011;12800;53.094;8.778;2023-11-22T03:37:37;12.93;;;6.47;;
24677;SDS011;12800;53.094;8.778;2023-11-22T03:40:03;13.43;;;6.40;;
24677;SDS011;12800;53.094;8.778;2023-11-22T03:42:29;11.90;;;6.20;;
24677;SDS011;12800;53.094;8.778;2023-11-22T03:44:55;10.80;;;6.30;;
24677;SDS011;12800;53.094;8.778;2023-11-22T03:47:21;8.07;;;5.87;;
24677;SDS011;12800;53.094;8.778;2023-11-22T03:49:47;7.87;;;6.00;;
24677;SDS011;12800;53.094;8.778;2023-11-22T03:52:13;12.03;;;6.13;;
24677;SDS011;12800;53.094;8.778;2023-11-22T03:54:40;8.87;;;6.07;;
24677;SDS011;12800;53.094;8.778;2023-11-22T03:57:06;11.47;;;6.17;;
24677;SDS011;12800;53.094;8.778;2023-11-22T03:59:34;7.67;;;5.60;;
24677;SDS011;12800;53.094;8.778;2023-11-22T04:01:59;13.73;;;6.00;;
24677;SDS011;12800;53.094;8.778;2023-11-22T04:04:25;8.27;;;5.83;;
24677;SDS011;12800;53.094;8.778;2023-11-22T04:06:51;9.30;;;5.83;;
24677;SDS011;12800;53.094;8.778;2023-11-22T04:09:17;9.83;;;6.80;;
24677;SDS011;12800;53.094;8.778;2023-11-22T04:11:43;8.47;;;6.07;;
24677;SDS011;12800;53.094;8.778;2023-11-22T04:14:09;10.23;;;5.83;;
24677;SDS011;12800;53.094;8.778;2023-11-22T04:16:35;8.70;;;6.17;;
24677;SDS011;12800;53.094;8.778;2023-11-22T04:19:01;15.83;;;7.60;;
24677;SDS011;12800;53.094;8.778;2023-11-22T04:21:26;20.07;;;10.13;;
24677;SDS011;12800;53.094;8.778;2023-11-22T04:23:53;20.97;;;9.97;;
24677;SDS011;12800;53.094;8.778;2023-11-22T04:26:19;23.73;;;10.23;;
24677;SDS011;12800;53.094;8.778;2023-11-22T04:28:46;13.83;;;8.03;;
24677;SDS011;12800;53.094;8.778;2023-11-22T04:31:13;14.40;;;8.40;;
24677;SDS011;12800;53.094;8.778;2023-11-22T04:33:42;10.27;;;6.90;;
24677;SDS011;12800;53.094;8.778;2023-11-22T04:36:09;10.83;;;7.37;;
24677;SDS011;12800;53.094;8.778;2023-11-22T04:38:42;11.27;;;6.70;;
24677;SDS011;12800;53.094;8.778;2023-11-22T04:41:09;10.53;;;6.43;;
24677;SDS011;12800;53.094;8.778;2023-11-22T04:43:40;9.93;;;6.77;;
24677;SDS011;12800;53.094;8.778;2023-11-22T04:46:10;12.30;;;7.23;;
24677;SDS011;12800;53.094;8.778;2023-11-22T04:48:36;7.03;;;5.93;;
24677;SDS011;12800;53.094;8.778;2023-11-22T04:51:05;8.40;;;5.80;;
24677;SDS011;12800;53.094;8.778;2023-11-22T04:53:31;8.93;;;6.10;;
24677;SDS011;12800;53.094;8.778;2023-11-22T04:55:57;10.67;;;6.20;;
24677;SDS011;12800;53.094;8.778;2023-11-22T04:58:24;11.13;;;6.83;;
24677;SDS011;12800;53.094;8.778;2023-11-22T05:00:49;8.67;;;5.90;;
24677;SDS011;12800;53.094;8.778;2023-11-22T05:03:15;10.20;;;5.53;;
24677;SDS011;12800;53.094;8.778;2023-11-22T05:05:43;10.40;;;6.00;;
24677;SDS011;12800;53.094;8.778;2023-11-22T05:08:10;9.17;;;6.07;;
24677;SDS011;12800;53.094;8.778;2023-11-22T05:10:35;10.30;;;6.10;;
24677;SDS011;12800;53.094;8.778;2023-11-22T05:13:01;9.37;;;6.57;;
24677;SDS011;12800;53.094;8.778;2023-11-22T05:15:28;7.47;;;5.90;;
24677;SDS011;12800;53.094;8.778;2023-11-22T05:17:54;12.73;;;8.13;;
24677;SDS011;12800;53.094;8.778;2023-11-22T05:20:22;14.70;;;8.77;;
24677;SDS011;12800;53.094;8.778;2023-11-22T05:22:49;11.80;;;6.60;;
24677;SDS011;12800;53.094;8.778;2023-11-22T05:25:34;9.67;;;6.37;;
24677;SDS011;12800;53.094;8.778;2023-11-22T05:28:01;10.80;;;6.57;;
24677;SDS011;12800;53.094;8.778;2023-11-22T05:30:27;8.43;;;6.10;;
24677;SDS011;12800;53.094;8.778;2023-11-22T05:32:53;9.57;;;6.40;;
24677;SDS011;12800;53.094;8.778;2023-11-22T05:35:30;8.27;;;6.17;;
24677;SDS011;12800;53.094;8.778;2023-11-22T05:38:02;10.03;;;6.60;;
24677;SDS011;12800;53.094;8.778;2023-11-22T05:40:28;9.47;;;6.53;;
24677;SDS011;12800;53.094;8.778;2023-11-22T05:42:54;9.87;;;5.80;;
24677;SDS011;12800;53.094;8.778;2023-11-22T05:45:19;7.97;;;5.90;;
24677;SDS011;12800;53.094;8.778;2023-11-22T05:47:45;13.30;;;6.70;;
24677;SDS011;12800;53.094;8.778;2023-11-22T05:50:14;9.40;;;6.00;;
24677;SDS011;12800;53.094;8.778;2023-11-22T05:52:41;9.83;;;6.67;;
24677;SDS011;12800;53.094;8.778;2023-11-22T05:55:10;8.53;;;6.47;;
24677;SDS011;12800;53.094;8.778;2023-11-22T05:57:39;11.40;;;6.20;;
24677;SDS011;12800;53.094;8.778;2023-11-22T06:00:07;8.23;;;5.33;;
24677;SDS011;12800;53.094;8.778;2023-11-22T06:02:33;9.37;;;6.47;;
24677;SDS011;12800;53.094;8.778;2023-11-22T06:04:59;9.57;;;6.13;;
24677;SDS011;12800;53.094;8.778;2023-11-22T06:07:25;10.07;;;6.97;;
24677;SDS011;12800;53.094;8.778;2023-11-22T06:09:52;10.33;;;6.90;;
24677;SDS011;12800;53.094;8.778;2023-11-22T06:12:18;10.93;;;6.70;;
24677;SDS011;12800;53.094;8.778;2023-11-22T06:14:45;13.80;;;8.30;;
24677;SDS011;12800;53.094;8.778;2023-11-22T06:17:11;13.23;;;7.80;;
24677;SDS011;12800;53.094;8.778;2023-11-22T06:19:37;13.83;;;6.97;;
24677;SDS011;12800;53.094;8.778;2023-11-22T06:22:03;9.30;;;6.60;;
24677;SDS011;12800;53.094;8.778;2023-11-22T06:24:29;9.07;;;6.23;;
24677;SDS011;12800;53.094;8.778;2023-11-22T06:26:56;10.33;;;6.60;;
24677;SDS011;12800;53.094;8.778;2023-11-22T06:29:21;13.63;;;6.20;;
24677;SDS011;12800;53.094;8.778;2023-11-22T06:31:47;11.40;;;7.37;;
24677;SDS011;12800;53.094;8.778;2023-11-22T06:34:13;10.20;;;6.57;;
24677;SDS011;12800;53.094;8.778;2023-11-22T06:36:38;10.67;;;6.40;;
24677;SDS011;12800;53.094;8.778;2023-11-22T06:39:04;8.40;;;6.23;;
24677;SDS011;12800;53.094;8.778;2023-11-22T06:41:34;9.47;;;6.00;;
24677;SDS011;12800;53.094;8.778;2023-11-22T06:43:59;9.47;;;6.13;;
24677;SDS011;12800;53.094;8.778;2023-11-22T06:46:28;10.10;;;6.53;;
24677;SDS011;12800;53.094;8.778;2023-11-22T06:48:54;9.50;;;6.20;;
24677;SDS011;12800;53.094;8.778;2023-11-22T06:51:21;11.80;;;6.77;;
24677;SDS011;12800;53.094;8.778;2023-11-22T06:53:47;8.53;;;7.17;;
24677;SDS011;12800;53.094;8.778;2023-11-22T06:56:12;10.50;;;6.67;;
24677;SDS011;12800;53.094;8.778;2023-11-22T06:58:39;10.23;;;7.07;;
24677;SDS011;12800;53.094;8.778;2023-11-22T07:01:05;9.40;;;6.20;;
24677;SDS011;12800;53.094;8.778;2023-11-22T07:03:32;35.83;;;20.63;;
24677;SDS011;12800;53.094;8.778;2023-11-22T07:05:58;45.53;;;25.80;;
24677;SDS011;12800;53.094;8.778;2023-11-22T07:08:24;15.30;;;9.83;;
24677;SDS011;12800;53.094;8.778;2023-11-22T07:10:51;26.17;;;13.50;;
24677;SDS011;12800;53.094;8.778;2023-11-22T07:13:17;34.47;;;20.20;;
24677;SDS011;12800;53.094;8.778;2023-11-22T07:15:43;23.97;;;11.77;;
24677;SDS011;12800;53.094;8.778;2023-11-22T07:18:09;18.40;;;9.37;;
24677;SDS011;12800;53.094;8.778;2023-11-22T07:20:35;12.10;;;6.90;;
24677;SDS011;12800;53.094;8.778;2023-11-22T07:23:00;13.67;;;7.20;;
24677;SDS011;12800;53.094;8.778;2023-11-22T07:25:27;15.00;;;7.67;;
24677;SDS011;12800;53.094;8.778;2023-11-22T07:27:54;16.47;;;6.83;;
24677;SDS011;12800;53.094;8.778;2023-11-22T07:30:19;12.73;;;7.00;;
24677;SDS011;12800;53.094;8.778;2023-11-22T07:32:47;10.63;;;6.83;;
24677;SDS011;12800;53.094;8.778;2023-11-22T07:35:19;12.13;;;6.57;;
24677;SDS011;12800;53.094;8.778;2023-11-22T07:37:45;11.63;;;7.63;;
24677;SDS011;12800;53.094;8.778;2023-11-22T07:40:12;14.97;;;7.13;;
24677;SDS011;12800;53.094;8.778;2023-11-22T07:42:39;13.03;;;8.30;;
24677;SDS011;12800;53.094;8.778;2023-11-22T07:45:06;14.37;;;8.17;;
24677;SDS011;12800;53.094;8.778;2023-11-22T07:47:32;16.47;;;7.53;;
24677;SDS011;12800;53.094;8.778;2023-11-22T07:49:57;26.40;;;14.93;;
24677;SDS011;12800;53.094;8.778;2023-11-22T07:52:23;43.70;;;26.43;;
24677;SDS011;12800;53.094;8.778;2023-11-22T07:54:56;23.17;;;13.40;;
24677;SDS011;12800;53.094;8.778;2023-11-22T07:57:22;17.73;;;8.60;;
24677;SDS011;12800;53.094;8.778;2023-11-22T07:59:48;11.40;;;7.13;;
24677;SDS011;12800;53.094;8.778;2023-11-22T08:02:14;11.63;;;7.10;;
24677;SDS011;12800;53.094;8.778;2023-11-22T08:04:44;10.53;;;6.83;;
24677;SDS011;12800;53.094;8.778;2023-11-22T08:07:10;12.33;;;7.10;;
24677;SDS011;12800;53.094;8.778;2023-11-22T08:09:40;16.33;;;6.80;;
24677;SDS011;12800;53.094;8.778;2023-11-22T08:12:07;11.30;;;7.37;;
24677;SDS011;12800;53.094;8.778;2023-11-22T08:14:32;11.30;;;6.53;;
24677;SDS011;12800;53.094;8.778;2023-11-22T08:16:58;11.50;;;6.53;;
24677;SDS011;12800;53.094;8.778;2023-11-22T08:19:24;22.33;;;13.00;;
24677;SDS011;12800;53.094;8.778;2023-11-22T08:21:50;19.17;;;11.33;;
24677;SDS011;12800;53.094;8.778;2023-11-22T08:24:16;17.53;;;8.93;;
24677;SDS011;12800;53.094;8.778;2023-11-22T08:26:43;13.97;;;7.23;;
24677;SDS011;12800;53.094;8.778;2023-11-22T08:29:09;9.67;;;6.07;;
24677;SDS011;12800;53.094;8.778;2023-11-22T08:31:36;7.27;;;5.30;;
24677;SDS011;12800;53.094;8.778;2023-11-22T08:34:02;9.10;;;5.50;;
24677;SDS011;12800;53.094;8.778;2023-11-22T08:36:31;10.27;;;5.63;;
24677;SDS011;12800;53.094;8.778;2023-11-22T08:38:59;8.03;;;4.97;;
24677;SDS011;12800;53.094;8.778;2023-11-22T08:41:26;9.07;;;5.43;;
24677;SDS011;12800;53.094;8.778;2023-11-22T08:43:55;7.43;;;5.53;;
24677;SDS011;12800;53.094;8.778;2023-11-22T08:46:21;9.10;;;5.97;;
24677;SDS011;12800;53.094;8.778;2023-11-22T08:48:48;8.73;;;5.40;;
24677;SDS011;12800;53.094;8.778;2023-11-22T08:51:14;7.50;;;4.73;;
24677;SDS011;12800;53.094;8.778;2023-11-22T08:53:40;8.33;;;5.43;;
24677;SDS011;12800;53.094;8.778;2023-11-22T08:56:05;7.53;;;5.00;;
24677;SDS011;12800;53.094;8.778;2023-11-22T08:58:34;7.60;;;4.97;;
24677;SDS011;12800;53.094;8.778;2023-11-22T09:00:59;7.10;;;5.50;;
24677;SDS011;12800;53.094;8.778;2023-11-22T09:03:25;8.27;;;4.80;;
24677;SDS011;12800;53.094;8.778;2023-11-22T09:05:51;25.30;;;13.67;;
24677;SDS011;12800;53.094;8.778;2023-11-22T09:08:18;17.47;;;10.37;;
24677;SDS011;12800;53.094;8.778;2023-11-22T09:10:46;10.73;;;5.37;;
24677;SDS011;12800;53.094;8.778;2023-11-22T09:13:11;6.80;;;5.13;;
24677;SDS011;12800;53.094;8.778;2023-11-22T09:15:41;5.77;;;4.57;;
24677;SDS011;12800;53.094;8.778;2023-11-22T09:18:09;8.50;;;4.30;;
24677;SDS011;12800;53.094;8.778;2023-11-22T09:20:35;6.80;;;4.47;;
24677;SDS011;12800;53.094;8.778;2023-11-22T09:23:01;5.60;;;4.37;;
24677;SDS011;12800;53.094;8.778;2023-11-22T09:25:29;6.27;;;4.63;;
24677;SDS011;12800;53.094;8.778;2023-11-22T09:27:56;6.53;;;4.87;;
24677;SDS011;12800;53.094;8.778;2023-11-22T09:30:31;6.50;;;4.43;;
24677;SDS011;12800;53.094;8.778;2023-11-22T09:33:11;7.90;;;4.77;;
24677;SDS011;12800;53.094;8.778;2023-11-22T09:35:40;6.17;;;4.43;;
24677;SDS011;12800;53.094;8.778;2023-11-22T09:38:08;9.07;;;4.93;;
24677;SDS011;12800;53.094;8.778;2023-11-22T09:40:38;6.57;;;4.87;;
24677;SDS011;12800;53.094;8.778;2023-11-22T09:43:06;7.13;;;4.63;;
24677;SDS011;12800;53.094;8.778;2023-11-22T09:45:32;6.90;;;5.07;;
24677;SDS011;12800;53.094;8.778;2023-11-22T09:47:58;5.57;;;4.10;;
24677;SDS011;12800;53.094;8.778;2023-11-22T09:53:32;6.07;;;3.90;;
24677;SDS011;12800;53.094;8.778;2023-11-22T09:56:00;8.00;;;3.87;;
24677;SDS011;12800;53.094;8.778;2023-11-22T09:58:31;5.57;;;3.47;;
24677;SDS011;12800;53.094;8.778;2023-11-22T10:00:58;5.17;;;3.57;;
24677;SDS011;12800;53.094;8.778;2023-11-22T10:03:26;5.23;;;3.47;;
24677;SDS011;12800;53.094;8.778;2023-11-22T10:05:54;5.00;;;3.67;;
24677;SDS011;12800;53.094;8.778;2023-11-22T10:08:25;5.60;;;3.73;;
24677;SDS011;12800;53.094;8.778;2023-11-22T10:10:52;6.07;;;3.93;;
24677;SDS011;12800;53.094;8.778;2023-11-22T10:13:19;6.50;;;4.03;;
24677;SDS011;12800;53.094;8.778;2023-11-22T10:15:48;4.30;;;3.40;;
24677;SDS011;12800;53.094;8.778;2023-11-22T10:18:18;7.93;;;4.33;;
24677;SDS011;12800;53.094;8.778;2023-11-22T10:20:45;4.63;;;3.57;;
24677;SDS011;12800;53.094;8.778;2023-11-22T10:23:12;4.40;;;3.43;;
24677;SDS011;12800;53.094;8.778;2023-11-22T10:25:43;6.93;;;4.20;;
24677;SDS011;12800;53.094;8.778;2023-11-22T10:28:18;5.77;;;3.80;;
24677;SDS011;12800;53.094;8.778;2023-11-22T10:30:47;6.17;;;3.40;;
24677;SDS011;12800;53.094;8.778;2023-11-22T10:33:17;7.07;;;4.40;;
24677;SDS011;12800;53.094;8.778;2023-11-22T10:35:48;5.03;;;3.40;;
24677;SDS011;12800;53.094;8.778;2023-11-22T10:38:18;6.03;;;3.07;;
24677;SDS011;12800;53.094;8.778;2023-11-22T10:40:44;4.33;;;3.70;;
24677;SDS011;12800;53.094;8.778;2023-11-22T10:43:11;5.43;;;3.20;;
24677;SDS011;12800;53.094;8.778;2023-11-22T10:45:38;4.83;;;3.53;;
24677;SDS011;12800;53.094;8.778;2023-11-22T10:48:05;4.33;;;2.90;;
24677;SDS011;12800;53.094;8.778;2023-11-22T10:50:34;5.27;;;3.53;;
24677;SDS011;12800;53.094;8.778;2023-11-22T10:52:59;4.33;;;3.10;;
24677;SDS011;12800;53.094;8.778;2023-11-22T10:55:28;4.87;;;2.80;;
24677;SDS011;12800;53.094;8.778;2023-11-22T10:58:01;5.13;;;3.37;;
24677;SDS011;12800;53.094;8.778;2023-11-22T11:00:29;5.27;;;3.20;;
24677;SDS011;12800;53.094;8.778;2023-11-22T11:03:18;4.27;;;2.70;;
24677;SDS011;12800;53.094;8.778;2023-11-22T11:05:50;5.83;;;2.73;;
24677;SDS011;12800;53.094;8.778;2023-11-22T11:08:22;5.97;;;3.67;;
24677;SDS011;12800;53.094;8.778;2023-11-22T11:10:52;4.30;;;2.83;;
24677;SDS011;12800;53.094;8.778;2023-11-22T11:13:21;5.03;;;3.17;;
24677;SDS011;12800;53.094;8.778;2023-11-22T11:15:46;4.10;;;3.03;;
24677;SDS011;12800;53.094;8.778;2023-11-22T11:18:13;7.23;;;4.57;;
24677;SDS011;12800;53.094;8.778;2023-11-22T11:20:54;5.33;;;2.67;;
24677;SDS011;12800;53.094;8.778;2023-11-22T11:23:21;2.47;;;2.10;;
24677;SDS011;12800;53.094;8.778;2023-11-22T11:25:49;6.13;;;2.67;;
24677;SDS011;12800;53.094;8.778;2023-11-22T11:28:17;3.87;;;2.50;;
24677;SDS011;12800;53.094;8.778;2023-11-22T11:33:13;2.73;;;2.00;;
24677;SDS011;12800;53.094;8.778;2023-11-22T11:35:48;4.40;;;2.03;;
24677;SDS011;12800;53.094;8.778;2023-11-22T11:38:15;4.27;;;1.70;;
24677;SDS011;12800;53.094;8.778;2023-11-22T11:40:47;5.60;;;2.00;;
24677;SDS011;12800;53.094;8.778;2023-11-22T11:43:14;3.67;;;1.80;;
24677;SDS011;12800;53.094;8.778;2023-11-22T11:45:40;3.77;;;2.00;;
24677;SDS011;12800;53.094;8.778;2023-11-22T11:48:18;2.53;;;2.03;;
24677;SDS011;12800;53.094;8.778;2023-11-22T11:50:45;4.67;;;2.07;;
24677;SDS011;12800;53.094;8.778;2023-11-22T11:53:11;3.33;;;1.63;;
24677;SDS011;12800;53.094;8.778;2023-11-22T11:55:37;3.20;;;1.70;;
24677;SDS011;12800;53.094;8.778;2023-11-22T11:58:06;4.40;;;1.50;;
24677;SDS011;12800;53.094;8.778;2023-11-22T12:00:38;3.37;;;1.63;;
24677;SDS011;12800;53.094;8.778;2023-11-22T12:03:05;1.97;;;1.70;;
24677;SDS011;12800;53.094;8.778;2023-11-22T12:05:32;3.37;;;1.53;;
24677;SDS011;12800;53.094;8.778;2023-11-22T12:07:58;1.93;;;1.17;;
24677;SDS011;12800;53.094;8.778;2023-11-22T12:10:23;2.30;;;1.47;;
24677;SDS011;12800;53.094;8.778;2023-11-22T12:12:50;4.83;;;2.37;;
24677;SDS011;12800;53.094;8.778;2023-11-22T12:15:15;2.60;;;1.27;;
24677;SDS011;12800;53.094;8.778;2023-11-22T12:17:41;4.60;;;1.03;;
24677;SDS011;12800;53.094;8.778;2023-11-22T12:20:10;2.53;;;1.10;;
24677;SDS011;12800;53.094;8.778;2023-11-22T12:22:38;1.77;;;0.93;;
24677;SDS011;12800;53.094;8.778;2023-11-22T12:25:06;1.87;;;1.00;;
24677;SDS011;12800;53.094;8.778;2023-11-22T12:27:32;1.87;;;1.47;;
24677;SDS011;12800;53.094;8.778;2023-11-22T12:29:57;1.70;;;1.20;;
24677;SDS011;12800;53.094;8.778;2023-11-22T12:32:24;2.80;;;1.80;;
24677;SDS011;12800;53.094;8.778;2023-11-22T12:34:50;7.27;;;2.13;;
24677;SDS011;12800;53.094;8.778;2023-11-22T12:37:21;2.17;;;1.13;;
24677;SDS011;12800;53.094;8.778;2023-11-22T12:39:50;1.77;;;1.20;;
24677;SDS011;12800;53.094;8.778;2023-11-22T12:42:17;1.67;;;1.20;;
24677;SDS011;12800;53.094;8.778;2023-11-22T12:44:47;1.73;;;1.30;;
24677;SDS011;12800;53.094;8.778;2023-11-22T12:47:14;2.23;;;1.17;;
24677;SDS011;12800;53.094;8.778;2023-11-22T12:49:47;2.50;;;1.27;;
24677;SDS011;12800;53.094;8.778;2023-11-22T12:52:12;2.00;;;0.90;;
24677;SDS011;12800;53.094;8.778;2023-11-22T12:54:39;1.00;;;0.90;;
24677;SDS011;12800;53.094;8.778;2023-11-22T12:57:09;4.23;;;1.57;;
24677;SDS011;12800;53.094;8.778;2023-11-22T12:59:37;24.87;;;15.07;;
24677;SDS011;12800;53.094;8.778;2023-11-22T13:02:05;7.00;;;4.70;;
24677;SDS011;12800;53.094;8.778;2023-11-22T13:04:32;1.87;;;1.40;;
24677;SDS011;12800;53.094;8.778;2023-11-22T13:06:58;1.43;;;1.30;;
24677;SDS011;12800;53.094;8.778;2023-11-22T13:09:25;4.20;;;1.27;;
24677;SDS011;12800;53.094;8.778;2023-11-22T13:11:50;2.13;;;1.30;;
24677;SDS011;12800;53.094;8.778;2023-11-22T13:14:17;2.60;;;1.50;;
24677;SDS011;12800;53.094;8.778;2023-11-22T13:16:43;3.83;;;1.43;;
24677;SDS011;12800;53.094;8.778;2023-11-22T13:19:10;2.37;;;1.50;;
24677;SDS011;12800;53.094;8.778;2023-11-22T13:21:36;2.00;;;1.30;;
24677;SDS011;12800;53.094;8.778;2023-11-22T13:24:02;2.63;;;1.57;;
24677;SDS011;12800;53.094;8.778;2023-11-22T13:26:29;5.03;;;1.63;;
24677;SDS011;12800;53.094;8.778;2023-11-22T13:28:55;1.83;;;1.27;;
24677;SDS011;12800;53.094;8.778;2023-11-22T13:31:21;1.50;;;1.30;;
24677;SDS011;12800;53.094;8.778;2023-11-22T13:34:10;3.43;;;1.33;;
24677;SDS011;12800;53.094;8.778;2023-11-22T13:37:03;2.23;;;1.40;;
24677;SDS011;12800;53.094;8.778;2023-11-22T13:39:46;2.37;;;1.57;;
24677;SDS011;12800;53.094;8.778;2023-11-22T13:42:54;3.23;;;1.50;;
24677;SDS011;12800;53.094;8.778;2023-11-22T13:45:57;1.90;;;1.50;;
24677;SDS011;12800;53.094;8.778;2023-11-22T13:48:56;2.90;;;1.53;;
24677;SDS011;12800;53.094;8.778;2023-11-22T13:51:48;1.57;;;1.30;;
24677;SDS011;12800;53.094;8.778;2023-11-22T13:54:22;2.00;;;1.40;;
24677;SDS011;12800;53.094;8.778;2023-11-22T13:56:55;2.70;;;1.33;;
24677;SDS011;12800;53.094;8.778;2023-11-22T13:59:22;2.07;;;1.57;;
24677;SDS011;12800;53.094;8.778;2023-11-22T14:02:50;2.00;;;1.40;;
24677;SDS011;12800;53.094;8.778;2023-11-22T14:05:44;2.50;;;1.20;;
24677;SDS011;12800;53.094;8.778;2023-11-22T14:09:16;2.70;;;1.40;;
24677;SDS011;12800;53.094;8.778;2023-11-22T14:15:58;4.70;;;2.37;;
24677;SDS011;12800;53.094;8.778;2023-11-22T14:22:24;2.70;;;1.93;;
24677;SDS011;12800;53.094;8.778;2023-11-22T14:24:59;4.17;;;1.93;;
24677;SDS011;12800;53.094;8.778;2023-11-22T14:27:48;3.20;;;1.90;;
24677;SDS011;12800;53.094;8.778;2023-11-22T14:30:23;4.03;;;2.83;;
24677;SDS011;12800;53.094;8.778;2023-11-22T14:33:35;5.10;;;2.87;;
24677;SDS011;12800;53.094;8.778;2023-11-22T14:37:04;3.40;;;2.30;;
24677;SDS011;12800;53.094;8.778;2023-11-22T14:40:22;3.20;;;1.90;;
24677;SDS011;12800;53.094;8.778;2023-11-22T14:43:23;4.53;;;2.03;;
24677;SDS011;12800;53.094;8.778;2023-11-22T14:46:10;4.03;;;2.57;;
24677;SDS011;12800;53.094;8.778;2023-11-22T14:49:44;3.80;;;2.23;;
24677;SDS011;12800;53.094;8.778;2023-11-22T14:59:52;3.13;;;2.10;;
24677;SDS011;12800;53.094;8.778;2023-11-22T15:02:55;2.40;;;2.00;;
24677;SDS011;12800;53.094;8.778;2023-11-22T15:05:36;3.83;;;2.23;;
24677;SDS011;12800;53.094;8.778;2023-11-22T15:08:09;2.97;;;2.20;;
24677;SDS011;12800;53.094;8.778;2023-11-22T15:11:11;4.47;;;2.63;;
24677;SDS011;12800;53.094;8.778;2023-11-22T15:14:27;4.93;;;2.53;;
24677;SDS011;12800;53.094;8.778;2023-11-22T15:17:52;2.93;;;2.30;;
24677;SDS011;12800;53.094;8.778;2023-11-22T15:21:21;3.70;;;2.13;;
24677;SDS011;12800;53.094;8.778;2023-11-22T15:24:36;2.77;;;2.10;;
24677;SDS011;12800;53.094;8.778;2023-11-22T15:27:17;6.47;;;2.93;;
24677;SDS011;12800;53.094;8.778;2023-11-22T15:30:14;4.50;;;2.77;;
24677;SDS011;12800;53.094;8.778;2023-11-22T15:33:11;10.17;;;2.87;;
24677;SDS011;12800;53.094;8.778;2023-11-22T15:36:13;2.90;;;2.50;;